North Arm Victor — CFK9387 — position and weather

sailwx.info

Track history (hours):
 
Tides and Currents Weather Stations Pressure Air Temp Water Temp Dewpoint Dewpoint Depression Visibility Wind Speed Wind Dir Waves Ship Positions

North Arm Victor

Last reported at 2017-Dec-15 17:35 UTC. Time now 2017-Dec-16 09:13 UTC.
Position N 51°19' W 127°35'.

Length 18 m.

Type: Tug. MMSI: 316003008.

Date/timePositionNaut miles runAvg speedWind from/ knotsBaromVisibWave heightAir tempDewpointWater temp
2017-Dec-15 17:35N 51°19' W 127°35'1 8.4
2017-Dec-15 17:30N 51°19' W 127°34'1 0.1
2017-Dec-15 12:00N 51°19' W 127°35'11 4.4
2017-Dec-15 09:33N 51°23' W 127°51'0 8.1
2017-Dec-15 09:30N 51°23' W 127°50'4 7.9
2017-Dec-15 08:59N 51°25' W 127°45'4 7.9
2017-Dec-15 08:30N 51°26' W 127°39'4 7.6
2017-Dec-15 08:00N 51°29' W 127°35'1 2.4
2017-Dec-15 07:30N 51°28' W 127°33'1 2.8
2017-Dec-15 07:00N 51°27' W 127°32'1 2.8
2017-Dec-15 06:30N 51°27' W 127°30'1 2.6
2017-Dec-15 06:00N 51°26' W 127°28'1 2.6
2017-Dec-15 05:30N 51°27' W 127°30'1 2.5
2017-Dec-15 05:00N 51°27' W 127°31'1 2.5
2017-Dec-15 04:30N 51°28' W 127°32'1 1.4
2017-Dec-15 04:00N 51°29' W 127°32'0 0.0
2017-Dec-15 02:30N 51°29' W 127°32'1 1.0
2017-Dec-15 01:00N 51°29' W 127°35'2 4.5
2017-Dec-15 00:30N 51°31' W 127°34'11 1.2
2017-Dec-14 14:49N 51°40' W 127°22'3 7.0
2017-Dec-14 14:27N 51°39' W 127°26'3 7.0
2017-Dec-14 14:00N 51°38' W 127°30'3 6.7
2017-Dec-14 13:30N 51°35' W 127°32'3 6.7
2017-Dec-14 13:00N 51°31' W 127°34'3 6.3
2017-Dec-14 12:30N 51°29' W 127°36'3 5.1
2017-Dec-14 12:00N 51°27' W 127°39'3 5.2
2017-Dec-14 11:30N 51°26' W 127°43'3 6.0
2017-Dec-14 11:00N 51°28' W 127°47'3 6.5
2017-Dec-14 10:30N 51°30' W 127°49'3 6.5
2017-Dec-14 10:00N 51°33' W 127°51'3 6.5
2017-Dec-14 09:30N 51°37' W 127°53'3 6.7
2017-Dec-14 09:00N 51°40' W 127°54'3 6.8
2017-Dec-14 08:30N 51°43' W 127°55'3 6.5
2017-Dec-14 08:00N 51°46' W 127°55'3 6.3
2017-Dec-14 07:30N 51°50' W 127°55'3 6.7
2017-Dec-14 07:00N 51°53' W 127°54'3 6.0
2017-Dec-14 06:30N 51°55' W 127°52'4 6.4
2017-Dec-14 05:54N 51°57' W 127°46'3 1.6
2017-Dec-14 03:45N 51°58' W 127°41'0 1.6
2017-Dec-14 03:30N 51°58' W 127°41'2 3.8
2017-Dec-14 03:00N 51°60' W 127°41'4 7.1
2017-Dec-14 02:30N 52°03' W 127°39'8 7.0
2017-Dec-14 01:19N 52°10' W 127°32'8 0.2
2017-Dec-12 09:24N 52°18' W 127°34'2 3.4
2017-Dec-12 08:45N 52°17' W 127°37'1 3.5
2017-Dec-12 08:30N 52°16' W 127°37'1 0.1
2017-Dec-12 02:26N 52°15' W 127°37'2 5.2
2017-Dec-12 02:00N 52°16' W 127°40'3 6.6
2017-Dec-12 01:30N 52°16' W 127°45'4 7.1
2017-Dec-12 01:00N 52°19' W 127°45'3 4.0
2017-Dec-12 00:22N 52°21' W 127°42'0 0.0
2017-Dec-11 23:57N 52°21' W 127°42'0 0.0
2017-Dec-11 23:18N 52°21' W 127°42'0 0.9
2017-Dec-11 23:00N 52°21' W 127°42'3 5.7
2017-Dec-11 22:29N 52°19' W 127°45'3 5.8
2017-Dec-11 22:00N 52°16' W 127°46'3 6.0
2017-Dec-11 21:30N 52°13' W 127°49'3 5.7
2017-Dec-11 21:00N 52°11' W 127°51'3 6.1
2017-Dec-11 20:30N 52°08' W 127°53'3 5.8
2017-Dec-11 20:00N 52°05' W 127°55'3 5.4
2017-Dec-11 19:30N 52°05' W 127°59'3 6.4
2017-Dec-11 19:00N 52°05' W 128°04'3 6.6
2017-Dec-11 18:31N 52°07' W 128°08'3 5.6
2017-Dec-11 18:00N 52°10' W 128°08'0 0.1
2017-Dec-11 17:30N 52°10' W 128°08'0 0.2
2017-Dec-11 17:00N 52°10' W 128°08'0 0.1
2017-Dec-11 16:30N 52°10' W 128°08'0 0.0
2017-Dec-11 16:00N 52°10' W 128°08'0 0.0
2017-Dec-11 15:30N 52°10' W 128°08'0 0.0
2017-Dec-11 15:00N 52°10' W 128°08'0 0.0
2017-Dec-11 14:30N 52°10' W 128°08'0 0.0
2017-Dec-11 14:00N 52°10' W 128°08'0 0.0
2017-Dec-11 13:30N 52°10' W 128°08'0 0.0
2017-Dec-11 13:00N 52°10' W 128°08'0 0.0
2017-Dec-11 12:30N 52°10' W 128°08'0 0.0
2017-Dec-11 12:00N 52°10' W 128°08'0 0.0
2017-Dec-11 11:30N 52°10' W 128°08'0 0.0
2017-Dec-11 11:00N 52°10' W 128°08'0 0.0
2017-Dec-11 10:30N 52°10' W 128°08'0 0.0
2017-Dec-11 10:00N 52°10' W 128°08'0 0.0
2017-Dec-11 09:31N 52°10' W 128°08'0 0.0
2017-Dec-11 09:00N 52°10' W 128°08'0 0.0
2017-Dec-11 08:30N 52°10' W 128°08'0 0.0
2017-Dec-11 07:58N 52°10' W 128°08'0 0.0
2017-Dec-11 07:29N 52°10' W 128°08'0 0.0
2017-Dec-11 07:00N 52°10' W 128°08'0 0.0
2017-Dec-11 06:30N 52°10' W 128°08'0 0.0
2017-Dec-11 06:00N 52°10' W 128°08'0 0.0
2017-Dec-11 05:30N 52°10' W 128°08'0 0.0
2017-Dec-11 05:00N 52°10' W 128°08'7 4.2
2017-Dec-11 03:26N 52°15' W 128°14'4 7.8
2017-Dec-11 02:56N 52°19' W 128°12'4 8.1
2017-Dec-11 02:30N 52°22' W 128°10'2 0.2
2017-Dec-10 14:02N 52°25' W 128°08'1 7.7
2017-Dec-10 13:57N 52°24' W 128°09'3 7.5
2017-Dec-10 13:30N 52°21' W 128°11'4 7.3
2017-Dec-10 12:57N 52°17' W 128°14'9 5.5
2017-Dec-10 11:17N 52°17' W 128°29'2 6.1
2017-Dec-10 11:00N 52°19' W 128°30'3 6.2
2017-Dec-10 10:30N 52°22' W 128°31'3 6.1
2017-Dec-10 10:00N 52°25' W 128°30'4 6.9
2017-Dec-10 09:28N 52°28' W 128°27'7 7.5
2017-Dec-10 08:29N 52°35' W 128°29'1 2.8
2017-Dec-10 08:00N 52°36' W 128°31'7 0.6
2017-Dec-09 19:21N 52°29' W 128°27'3 7.4
2017-Dec-09 19:00N 52°26' W 128°28'8 7.0
2017-Dec-09 17:53N 52°19' W 128°30'3 7.4
2017-Dec-09 17:30N 52°16' W 128°27'13 7.1
2017-Dec-09 15:36N 52°10' W 128°08'1 8.0
2017-Dec-09 15:30N 52°09' W 128°08'4 7.7
2017-Dec-09 15:00N 52°06' W 128°07'7 8.0
2017-Dec-09 14:06N 52°04' W 127°56'1 6.9
2017-Dec-09 14:00N 52°03' W 127°56'3 5.4
2017-Dec-09 13:30N 52°00' W 127°56'3 6.3
2017-Dec-09 13:00N 51°57' W 127°56'3 6.4
2017-Dec-09 12:31N 51°54' W 127°56'4 7.1
2017-Dec-09 12:01N 51°50' W 127°56'4 7.4
2017-Dec-09 11:31N 51°47' W 127°56'4 7.3
2017-Dec-09 11:01N 51°43' W 127°55'4 7.3
2017-Dec-09 10:30N 51°39' W 127°54'4 7.1
2017-Dec-09 10:01N 51°36' W 127°53'4 7.1
2017-Dec-09 09:30N 51°32' W 127°52'4 7.1
2017-Dec-09 09:00N 51°29' W 127°52'4 6.9
2017-Dec-09 08:24N 51°25' W 127°52'5 7.2
2017-Dec-09 07:40N 51°19' W 127°53'1 7.7
2017-Dec-09 07:29N 51°18' W 127°53'5 8.0
2017-Dec-09 06:54N 51°13' W 127°52'3 8.5
2017-Dec-09 06:30N 51°10' W 127°50'4 8.5
2017-Dec-09 06:01N 51°07' W 127°47'4 8.7
2017-Dec-09 05:30N 51°04' W 127°41'5 8.6
2017-Dec-09 04:59N 51°01' W 127°36'4 8.6
2017-Dec-09 04:30N 50°58' W 127°31'5 9.0
2017-Dec-09 04:00N 50°55' W 127°25'4 8.7
2017-Dec-09 03:30N 50°53' W 127°20'4 8.4
2017-Dec-09 03:00N 50°51' W 127°14'4 8.4
2017-Dec-09 02:30N 50°49' W 127°08'5 7.3
2017-Dec-09 01:51N 50°48' W 127°00'4 8.4
2017-Dec-09 01:23N 50°51' W 126°56'3 7.4
2017-Dec-09 01:00N 50°53' W 126°53'3 5.4
2017-Dec-09 00:31N 50°54' W 126°57'3 4.9
2017-Dec-08 23:58N 50°54' W 127°01'1 2.2
2017-Dec-08 23:30N 50°53' W 127°03'0 0.1
2017-Dec-08 23:00N 50°53' W 127°03'0 0.0
2017-Dec-08 22:30N 50°53' W 127°03'0 0.0
2017-Dec-08 22:01N 50°53' W 127°03'0 0.0
2017-Dec-08 21:30N 50°53' W 127°03'0 0.0
2017-Dec-08 21:01N 50°53' W 127°03'0 0.0
2017-Dec-08 20:31N 50°53' W 127°03'0 0.0
2017-Dec-08 20:01N 50°53' W 127°03'0 0.0
2017-Dec-08 19:24N 50°53' W 127°03'1 1.6
2017-Dec-08 18:57N 50°54' W 127°02'3 6.6
2017-Dec-08 18:30N 50°54' W 126°57'2 4.5
2017-Dec-08 17:59N 50°54' W 126°54'1 2.4
2017-Dec-08 17:30N 50°52' W 126°54'1 2.3
2017-Dec-08 16:53N 50°51' W 126°55'0 0.6
2017-Dec-08 16:30N 50°51' W 126°56'0 0.5
2017-Dec-08 16:00N 50°51' W 126°56'1 1.0
2017-Dec-08 15:25N 50°51' W 126°55'2 4.9
2017-Dec-08 14:59N 50°53' W 126°53'2 4.4
2017-Dec-08 14:30N 50°54' W 126°50'2 4.3
2017-Dec-08 14:01N 50°54' W 126°47'2 4.2
2017-Dec-08 13:26N 50°52' W 126°43'2 5.4
2017-Dec-08 13:00N 50°51' W 126°40'3 5.0
2017-Dec-08 12:30N 50°51' W 126°36'3 5.4
2017-Dec-08 12:01N 50°49' W 126°33'3 5.2
2017-Dec-08 11:30N 50°47' W 126°32'3 5.5
2017-Dec-08 10:56N 50°47' W 126°37'3 5.9
2017-Dec-08 10:29N 50°46' W 126°41'5 5.0
2017-Dec-08 09:33N 50°43' W 126°45'1 6.1
2017-Dec-08 09:23N 50°42' W 126°45'3 6.2
2017-Dec-08 08:58N 50°39' W 126°45'7 6.0
2017-Dec-08 07:43N 50°32' W 126°41'3 7.8
2017-Dec-08 07:19N 50°31' W 126°36'16 7.3
2017-Dec-08 05:07N 50°29' W 126°11'18 6.3
2017-Dec-08 02:11N 50°22' W 125°44'1 6.3
2017-Dec-08 01:58N 50°22' W 125°42'5 5.9
2017-Dec-08 01:06N 50°22' W 125°34'0 4.6
2017-Dec-08 01:01N 50°22' W 125°33'4 4.6
2017-Dec-08 00:05N 50°20' W 125°27'0 5.4
2017-Dec-08 00:00N 50°20' W 125°26'3 5.7
2017-Dec-07 23:31N 50°18' W 125°25'3 6.5
2017-Dec-07 23:00N 50°14' W 125°23'3 6.5
2017-Dec-07 22:30N 50°11' W 125°22'3 6.9
2017-Dec-07 22:01N 50°08' W 125°21'1 2.7
2017-Dec-07 21:31N 50°07' W 125°23'0 0.0
2017-Dec-07 21:01N 50°07' W 125°23'0 0.0
2017-Dec-07 20:31N 50°07' W 125°23'0 0.0
2017-Dec-07 20:01N 50°07' W 125°23'0 0.0
2017-Dec-07 19:30N 50°07' W 125°23'0 0.0
2017-Dec-07 19:01N 50°07' W 125°23'0 0.0
2017-Dec-07 18:31N 50°07' W 125°23'0 0.0
2017-Dec-07 18:01N 50°07' W 125°23'0 0.0
2017-Dec-07 17:30N 50°07' W 125°23'0 0.0
2017-Dec-07 17:00N 50°07' W 125°23'0 0.9
2017-Dec-07 16:30N 50°07' W 125°22'3 5.3
2017-Dec-07 16:01N 50°06' W 125°18'3 6.2
2017-Dec-07 15:30N 50°04' W 125°15'3 5.2
2017-Dec-07 15:01N 50°02' W 125°13'2 3.8
2017-Dec-07 14:30N 49°60' W 125°12'1 2.8
2017-Dec-07 14:00N 49°59' W 125°11'1 2.4
2017-Dec-07 13:29N 49°58' W 125°10'3 6.6
2017-Dec-07 13:00N 49°56' W 125°06'4 7.8
2017-Dec-07 12:30N 49°54' W 125°01'4 7.9
2017-Dec-07 12:00N 49°52' W 124°56'4 7.7
2017-Dec-07 11:30N 49°51' W 124°50'4 7.7
2017-Dec-07 11:01N 49°50' W 124°44'4 7.5
2017-Dec-07 10:30N 49°49' W 124°38'4 7.6
2017-Dec-07 10:01N 49°48' W 124°33'4 7.3
2017-Dec-07 09:30N 49°46' W 124°28'4 7.3
2017-Dec-07 09:01N 49°44' W 124°23'4 7.3
2017-Dec-07 08:30N 49°42' W 124°18'4 7.2
2017-Dec-07 08:00N 49°40' W 124°14'4 7.2
2017-Dec-07 07:30N 49°37' W 124°10'4 7.4
2017-Dec-07 07:00N 49°35' W 124°06'24 7.2
2017-Dec-07 03:38N 49°21' W 123°35'1 7.5
2017-Dec-07 03:30N 49°20' W 123°34'4 7.2
2017-Dec-07 03:00N 49°19' W 123°29'4 7.1
2017-Dec-07 02:30N 49°17' W 123°25'4 7.4
2017-Dec-07 02:00N 49°16' W 123°19'3 4.9
2017-Dec-07 01:30N 49°15' W 123°16'2 4.3
2017-Dec-07 01:00N 49°14' W 123°13'3 5.1
2017-Dec-07 00:30N 49°13' W 123°09'2 5.0
2017-Dec-07 00:00N 49°12' W 123°06'0 0.5
2017-Dec-06 23:30N 49°12' W 123°05'0 0.0
2017-Dec-06 23:00N 49°12' W 123°05'1 2.6
2017-Dec-06 22:30N 49°12' W 123°04'0 0.4
2017-Dec-06 22:00N 49°12' W 123°03'0 0.0
2017-Dec-06 21:30N 49°12' W 123°03'0 0.0
2017-Dec-06 21:00N 49°12' W 123°03'  
Track history (hours):
 
Tides and Currents Weather Stations Pressure Air Temp Water Temp Dewpoint Dewpoint Depression Visibility Wind Speed Wind Dir Waves Ship Positions

North Arm Victor

Last reported at 2017-Dec-15 17:35 UTC. Time now 2017-Dec-16 09:13 UTC.
Position N 51°19' W 127°35'.

Length 18 m.

Type: Tug. MMSI: 316003008.

Date/timePositionNaut miles runAvg speedWind from/ knotsBaromVisibWave heightAir tempDewpointWater temp
2017-Dec-15 17:35N 51°19' W 127°35'1 8.4
2017-Dec-15 17:30N 51°19' W 127°34'1 0.1
2017-Dec-15 12:00N 51°19' W 127°35'11 4.4
2017-Dec-15 09:33N 51°23' W 127°51'0 8.1
2017-Dec-15 09:30N 51°23' W 127°50'4 7.9
2017-Dec-15 08:59N 51°25' W 127°45'4 7.9
2017-Dec-15 08:30N 51°26' W 127°39'4 7.6
2017-Dec-15 08:00N 51°29' W 127°35'1 2.4
2017-Dec-15 07:30N 51°28' W 127°33'1 2.8
2017-Dec-15 07:00N 51°27' W 127°32'1 2.8
2017-Dec-15 06:30N 51°27' W 127°30'1 2.6
2017-Dec-15 06:00N 51°26' W 127°28'1 2.6
2017-Dec-15 05:30N 51°27' W 127°30'1 2.5
2017-Dec-15 05:00N 51°27' W 127°31'1 2.5
2017-Dec-15 04:30N 51°28' W 127°32'1 1.4
2017-Dec-15 04:00N 51°29' W 127°32'0 0.0
2017-Dec-15 02:30N 51°29' W 127°32'1 1.0
2017-Dec-15 01:00N 51°29' W 127°35'2 4.5
2017-Dec-15 00:30N 51°31' W 127°34'11 1.2
2017-Dec-14 14:49N 51°40' W 127°22'3 7.0
2017-Dec-14 14:27N 51°39' W 127°26'3 7.0
2017-Dec-14 14:00N 51°38' W 127°30'3 6.7
2017-Dec-14 13:30N 51°35' W 127°32'3 6.7
2017-Dec-14 13:00N 51°31' W 127°34'3 6.3
2017-Dec-14 12:30N 51°29' W 127°36'3 5.1
2017-Dec-14 12:00N 51°27' W 127°39'3 5.2
2017-Dec-14 11:30N 51°26' W 127°43'3 6.0
2017-Dec-14 11:00N 51°28' W 127°47'3 6.5
2017-Dec-14 10:30N 51°30' W 127°49'3 6.5
2017-Dec-14 10:00N 51°33' W 127°51'3 6.5
2017-Dec-14 09:30N 51°37' W 127°53'3 6.7
2017-Dec-14 09:00N 51°40' W 127°54'3 6.8
2017-Dec-14 08:30N 51°43' W 127°55'3 6.5
2017-Dec-14 08:00N 51°46' W 127°55'3 6.3
2017-Dec-14 07:30N 51°50' W 127°55'3 6.7
2017-Dec-14 07:00N 51°53' W 127°54'3 6.0
2017-Dec-14 06:30N 51°55' W 127°52'4 6.4
2017-Dec-14 05:54N 51°57' W 127°46'3 1.6
2017-Dec-14 03:45N 51°58' W 127°41'0 1.6
2017-Dec-14 03:30N 51°58' W 127°41'2 3.8
2017-Dec-14 03:00N 51°60' W 127°41'4 7.1
2017-Dec-14 02:30N 52°03' W 127°39'8 7.0
2017-Dec-14 01:19N 52°10' W 127°32'8 0.2
2017-Dec-12 09:24N 52°18' W 127°34'2 3.4
2017-Dec-12 08:45N 52°17' W 127°37'1 3.5
2017-Dec-12 08:30N 52°16' W 127°37'1 0.1
2017-Dec-12 02:26N 52°15' W 127°37'2 5.2
2017-Dec-12 02:00N 52°16' W 127°40'3 6.6
2017-Dec-12 01:30N 52°16' W 127°45'4 7.1
2017-Dec-12 01:00N 52°19' W 127°45'3 4.0
2017-Dec-12 00:22N 52°21' W 127°42'0 0.0
2017-Dec-11 23:57N 52°21' W 127°42'0 0.0
2017-Dec-11 23:18N 52°21' W 127°42'0 0.9
2017-Dec-11 23:00N 52°21' W 127°42'3 5.7
2017-Dec-11 22:29N 52°19' W 127°45'3 5.8
2017-Dec-11 22:00N 52°16' W 127°46'3 6.0
2017-Dec-11 21:30N 52°13' W 127°49'3 5.7
2017-Dec-11 21:00N 52°11' W 127°51'3 6.1
2017-Dec-11 20:30N 52°08' W 127°53'3 5.8
2017-Dec-11 20:00N 52°05' W 127°55'3 5.4
2017-Dec-11 19:30N 52°05' W 127°59'3 6.4
2017-Dec-11 19:00N 52°05' W 128°04'3 6.6
2017-Dec-11 18:31N 52°07' W 128°08'3 5.6
2017-Dec-11 18:00N 52°10' W 128°08'0 0.1
2017-Dec-11 17:30N 52°10' W 128°08'0 0.2
2017-Dec-11 17:00N 52°10' W 128°08'0 0.1
2017-Dec-11 16:30N 52°10' W 128°08'0 0.0
2017-Dec-11 16:00N 52°10' W 128°08'0 0.0
2017-Dec-11 15:30N 52°10' W 128°08'0 0.0
2017-Dec-11 15:00N 52°10' W 128°08'0 0.0
2017-Dec-11 14:30N 52°10' W 128°08'0 0.0
2017-Dec-11 14:00N 52°10' W 128°08'0 0.0
2017-Dec-11 13:30N 52°10' W 128°08'0 0.0
2017-Dec-11 13:00N 52°10' W 128°08'0 0.0
2017-Dec-11 12:30N 52°10' W 128°08'0 0.0
2017-Dec-11 12:00N 52°10' W 128°08'0 0.0
2017-Dec-11 11:30N 52°10' W 128°08'0 0.0
2017-Dec-11 11:00N 52°10' W 128°08'0 0.0
2017-Dec-11 10:30N 52°10' W 128°08'0 0.0
2017-Dec-11 10:00N 52°10' W 128°08'0 0.0
2017-Dec-11 09:31N 52°10' W 128°08'0 0.0
2017-Dec-11 09:00N 52°10' W 128°08'0 0.0
2017-Dec-11 08:30N 52°10' W 128°08'0 0.0
2017-Dec-11 07:58N 52°10' W 128°08'0 0.0
2017-Dec-11 07:29N 52°10' W 128°08'0 0.0
2017-Dec-11 07:00N 52°10' W 128°08'0 0.0
2017-Dec-11 06:30N 52°10' W 128°08'0 0.0
2017-Dec-11 06:00N 52°10' W 128°08'0 0.0
2017-Dec-11 05:30N 52°10' W 128°08'0 0.0
2017-Dec-11 05:00N 52°10' W 128°08'7 4.2
2017-Dec-11 03:26N 52°15' W 128°14'4 7.8
2017-Dec-11 02:56N 52°19' W 128°12'4 8.1
2017-Dec-11 02:30N 52°22' W 128°10'2 0.2
2017-Dec-10 14:02N 52°25' W 128°08'1 7.7
2017-Dec-10 13:57N 52°24' W 128°09'3 7.5
2017-Dec-10 13:30N 52°21' W 128°11'4 7.3
2017-Dec-10 12:57N 52°17' W 128°14'9 5.5
2017-Dec-10 11:17N 52°17' W 128°29'2 6.1
2017-Dec-10 11:00N 52°19' W 128°30'3 6.2
2017-Dec-10 10:30N 52°22' W 128°31'3 6.1
2017-Dec-10 10:00N 52°25' W 128°30'4 6.9
2017-Dec-10 09:28N 52°28' W 128°27'7 7.5
2017-Dec-10 08:29N 52°35' W 128°29'1 2.8
2017-Dec-10 08:00N 52°36' W 128°31'7 0.6
2017-Dec-09 19:21N 52°29' W 128°27'3 7.4
2017-Dec-09 19:00N 52°26' W 128°28'8 7.0
2017-Dec-09 17:53N 52°19' W 128°30'3 7.4
2017-Dec-09 17:30N 52°16' W 128°27'13 7.1
2017-Dec-09 15:36N 52°10' W 128°08'1 8.0
2017-Dec-09 15:30N 52°09' W 128°08'4 7.7
2017-Dec-09 15:00N 52°06' W 128°07'7 8.0
2017-Dec-09 14:06N 52°04' W 127°56'1 6.9
2017-Dec-09 14:00N 52°03' W 127°56'3 5.4
2017-Dec-09 13:30N 52°00' W 127°56'3 6.3
2017-Dec-09 13:00N 51°57' W 127°56'3 6.4
2017-Dec-09 12:31N 51°54' W 127°56'4 7.1
2017-Dec-09 12:01N 51°50' W 127°56'4 7.4
2017-Dec-09 11:31N 51°47' W 127°56'4 7.3
2017-Dec-09 11:01N 51°43' W 127°55'4 7.3
2017-Dec-09 10:30N 51°39' W 127°54'4 7.1
2017-Dec-09 10:01N 51°36' W 127°53'4 7.1
2017-Dec-09 09:30N 51°32' W 127°52'4 7.1
2017-Dec-09 09:00N 51°29' W 127°52'4 6.9
2017-Dec-09 08:24N 51°25' W 127°52'5 7.2
2017-Dec-09 07:40N 51°19' W 127°53'1 7.7
2017-Dec-09 07:29N 51°18' W 127°53'5 8.0
2017-Dec-09 06:54N 51°13' W 127°52'3 8.5
2017-Dec-09 06:30N 51°10' W 127°50'4 8.5
2017-Dec-09 06:01N 51°07' W 127°47'4 8.7
2017-Dec-09 05:30N 51°04' W 127°41'5 8.6
2017-Dec-09 04:59N 51°01' W 127°36'4 8.6
2017-Dec-09 04:30N 50°58' W 127°31'5 9.0
2017-Dec-09 04:00N 50°55' W 127°25'4 8.7
2017-Dec-09 03:30N 50°53' W 127°20'4 8.4
2017-Dec-09 03:00N 50°51' W 127°14'4 8.4
2017-Dec-09 02:30N 50°49' W 127°08'5 7.3
2017-Dec-09 01:51N 50°48' W 127°00'4 8.4
2017-Dec-09 01:23N 50°51' W 126°56'3 7.4
2017-Dec-09 01:00N 50°53' W 126°53'3 5.4
2017-Dec-09 00:31N 50°54' W 126°57'3 4.9
2017-Dec-08 23:58N 50°54' W 127°01'1 2.2
2017-Dec-08 23:30N 50°53' W 127°03'0 0.1
2017-Dec-08 23:00N 50°53' W 127°03'0 0.0
2017-Dec-08 22:30N 50°53' W 127°03'0 0.0
2017-Dec-08 22:01N 50°53' W 127°03'0 0.0
2017-Dec-08 21:30N 50°53' W 127°03'0 0.0
2017-Dec-08 21:01N 50°53' W 127°03'0 0.0
2017-Dec-08 20:31N 50°53' W 127°03'0 0.0
2017-Dec-08 20:01N 50°53' W 127°03'0 0.0
2017-Dec-08 19:24N 50°53' W 127°03'1 1.6
2017-Dec-08 18:57N 50°54' W 127°02'3 6.6
2017-Dec-08 18:30N 50°54' W 126°57'2 4.5
2017-Dec-08 17:59N 50°54' W 126°54'1 2.4
2017-Dec-08 17:30N 50°52' W 126°54'1 2.3
2017-Dec-08 16:53N 50°51' W 126°55'0 0.6
2017-Dec-08 16:30N 50°51' W 126°56'0 0.5
2017-Dec-08 16:00N 50°51' W 126°56'1 1.0
2017-Dec-08 15:25N 50°51' W 126°55'2 4.9
2017-Dec-08 14:59N 50°53' W 126°53'2 4.4
2017-Dec-08 14:30N 50°54' W 126°50'2 4.3
2017-Dec-08 14:01N 50°54' W 126°47'2 4.2
2017-Dec-08 13:26N 50°52' W 126°43'2 5.4
2017-Dec-08 13:00N 50°51' W 126°40'3 5.0
2017-Dec-08 12:30N 50°51' W 126°36'3 5.4
2017-Dec-08 12:01N 50°49' W 126°33'3 5.2
2017-Dec-08 11:30N 50°47' W 126°32'3 5.5
2017-Dec-08 10:56N 50°47' W 126°37'3 5.9
2017-Dec-08 10:29N 50°46' W 126°41'5 5.0
2017-Dec-08 09:33N 50°43' W 126°45'1 6.1
2017-Dec-08 09:23N 50°42' W 126°45'3 6.2
2017-Dec-08 08:58N 50°39' W 126°45'7 6.0
2017-Dec-08 07:43N 50°32' W 126°41'3 7.8
2017-Dec-08 07:19N 50°31' W 126°36'16 7.3
2017-Dec-08 05:07N 50°29' W 126°11'18 6.3
2017-Dec-08 02:11N 50°22' W 125°44'1 6.3
2017-Dec-08 01:58N 50°22' W 125°42'5 5.9
2017-Dec-08 01:06N 50°22' W 125°34'0 4.6
2017-Dec-08 01:01N 50°22' W 125°33'4 4.6
2017-Dec-08 00:05N 50°20' W 125°27'0 5.4
2017-Dec-08 00:00N 50°20' W 125°26'3 5.7
2017-Dec-07 23:31N 50°18' W 125°25'3 6.5
2017-Dec-07 23:00N 50°14' W 125°23'3 6.5
2017-Dec-07 22:30N 50°11' W 125°22'3 6.9
2017-Dec-07 22:01N 50°08' W 125°21'1 2.7
2017-Dec-07 21:31N 50°07' W 125°23'0 0.0
2017-Dec-07 21:01N 50°07' W 125°23'0 0.0
2017-Dec-07 20:31N 50°07' W 125°23'0 0.0
2017-Dec-07 20:01N 50°07' W 125°23'0 0.0
2017-Dec-07 19:30N 50°07' W 125°23'0 0.0
2017-Dec-07 19:01N 50°07' W 125°23'0 0.0
2017-Dec-07 18:31N 50°07' W 125°23'0 0.0
2017-Dec-07 18:01N 50°07' W 125°23'0 0.0
2017-Dec-07 17:30N 50°07' W 125°23'0 0.0
2017-Dec-07 17:00N 50°07' W 125°23'0 0.9
2017-Dec-07 16:30N 50°07' W 125°22'3 5.3
2017-Dec-07 16:01N 50°06' W 125°18'3 6.2
2017-Dec-07 15:30N 50°04' W 125°15'3 5.2
2017-Dec-07 15:01N 50°02' W 125°13'2 3.8
2017-Dec-07 14:30N 49°60' W 125°12'1 2.8
2017-Dec-07 14:00N 49°59' W 125°11'1 2.4
2017-Dec-07 13:29N 49°58' W 125°10'3 6.6
2017-Dec-07 13:00N 49°56' W 125°06'4 7.8
2017-Dec-07 12:30N 49°54' W 125°01'4 7.9
2017-Dec-07 12:00N 49°52' W 124°56'4 7.7
2017-Dec-07 11:30N 49°51' W 124°50'4 7.7
2017-Dec-07 11:01N 49°50' W 124°44'4 7.5
2017-Dec-07 10:30N 49°49' W 124°38'4 7.6
2017-Dec-07 10:01N 49°48' W 124°33'4 7.3
2017-Dec-07 09:30N 49°46' W 124°28'4 7.3
2017-Dec-07 09:01N 49°44' W 124°23'4 7.3
2017-Dec-07 08:30N 49°42' W 124°18'4 7.2
2017-Dec-07 08:00N 49°40' W 124°14'4 7.2
2017-Dec-07 07:30N 49°37' W 124°10'4 7.4
2017-Dec-07 07:00N 49°35' W 124°06'24 7.2
2017-Dec-07 03:38N 49°21' W 123°35'1 7.5
2017-Dec-07 03:30N 49°20' W 123°34'4 7.2
2017-Dec-07 03:00N 49°19' W 123°29'4 7.1
2017-Dec-07 02:30N 49°17' W 123°25'4 7.4
2017-Dec-07 02:00N 49°16' W 123°19'3 4.9
2017-Dec-07 01:30N 49°15' W 123°16'2 4.3
2017-Dec-07 01:00N 49°14' W 123°13'3 5.1
2017-Dec-07 00:30N 49°13' W 123°09'2 5.0
2017-Dec-07 00:00N 49°12' W 123°06'0 0.5
2017-Dec-06 23:30N 49°12' W 123°05'0 0.0
2017-Dec-06 23:00N 49°12' W 123°05'1 2.6
2017-Dec-06 22:30N 49°12' W 123°04'0 0.4
2017-Dec-06 22:00N 49°12' W 123°03'0 0.0
2017-Dec-06 21:30N 49°12' W 123°03'0 0.0
2017-Dec-06 21:00N 49°12' W 123°03'  

Dump ship's entire track history